createdAt,value
2017-10-26T00:00:48.730Z,95.64
2017-10-26T00:01:55.562Z,95.65
2017-10-26T00:03:01.667Z,95.75
2017-10-26T00:04:07.570Z,95.82
2017-10-26T00:05:13.661Z,95.96
2017-10-26T00:06:21.423Z,95.73
2017-10-26T00:07:28.329Z,95.81
2017-10-26T00:08:34.489Z,95.57
2017-10-26T00:09:40.749Z,95.56
2017-10-26T00:10:46.918Z,95.73
2017-10-26T00:11:53.043Z,95.49
2017-10-26T00:12:59.164Z,95.62
2017-10-26T00:14:07.216Z,95.67
2017-10-26T00:15:13.349Z,95.56
2017-10-26T00:16:18.776Z,96.03
2017-10-26T00:17:24.670Z,96.03
2017-10-26T00:18:31.799Z,95.65
2017-10-26T00:19:37.727Z,95.55
2017-10-26T00:20:46.903Z,95.75
2017-10-26T00:21:53.012Z,95.88
2017-10-26T00:22:59.090Z,95.81
2017-10-26T00:24:05.231Z,95.55
2017-10-26T00:25:11.325Z,95.66
2017-10-26T00:26:17.440Z,95.59
2017-10-26T00:27:23.577Z,95.44
2017-10-26T00:28:29.563Z,95.35
2017-10-26T00:29:35.703Z,95.75
2017-10-26T00:30:43.467Z,95.65
2017-10-26T00:31:49.567Z,95.52
2017-10-26T00:32:55.566Z,95.64
2017-10-26T00:34:01.711Z,95.26
2017-10-26T00:35:07.641Z,94.77
2017-10-26T00:36:13.739Z,94.51
2017-10-26T00:37:19.855Z,94.84
2017-10-26T00:38:25.982Z,94.83
2017-10-26T00:39:32.100Z,94.80
2017-10-26T00:40:38.226Z,94.51
2017-10-26T00:41:44.478Z,94.89
2017-10-26T00:42:50.589Z,94.80
2017-10-26T00:43:56.359Z,94.58
2017-10-26T00:45:02.290Z,94.86
2017-10-26T00:46:08.141Z,94.75
2017-10-26T00:47:17.391Z,95.01
2017-10-26T00:48:25.887Z,95.02
2017-10-26T00:49:31.969Z,95.76
2017-10-26T00:50:38.068Z,95.82
2017-10-26T00:51:44.122Z,95.86
2017-10-26T00:52:50.265Z,95.59
2017-10-26T00:53:56.417Z,96.11
2017-10-26T00:55:02.505Z,95.75
2017-10-26T00:56:08.588Z,96.08
2017-10-26T00:57:13.993Z,96.13
2017-10-26T00:58:23.492Z,95.93
2017-10-26T00:59:29.595Z,96.25
2017-10-26T01:00:34.932Z,96.36
2017-10-26T01:01:39.100Z,96.39
2017-10-26T01:02:44.491Z,96.12
2017-10-26T01:03:50.571Z,96.12
2017-10-26T01:04:56.440Z,95.87
2017-10-26T01:06:02.515Z,96.12
2017-10-26T01:07:08.598Z,96.00
2017-10-26T01:08:21.351Z,95.75
2017-10-26T01:09:29.184Z,95.55
2017-10-26T01:10:35.625Z,95.75
2017-10-26T01:11:41.761Z,95.67
2017-10-26T01:12:47.845Z,95.46
2017-10-26T01:13:53.992Z,95.79
2017-10-26T01:14:59.799Z,95.99
2017-10-26T01:16:04.955Z,95.83
2017-10-26T01:17:10.837Z,95.78
2017-10-26T01:18:16.895Z,95.75
2017-10-26T01:19:22.711Z,96.35
2017-10-26T01:20:27.876Z,96.43
2017-10-26T01:21:33.212Z,95.96
2017-10-26T01:22:39.093Z,95.72
2017-10-26T01:23:44.440Z,95.57
2017-10-26T01:24:49.851Z,95.26
2017-10-26T01:25:55.214Z,95.57
2017-10-26T01:27:00.601Z,95.46
2017-10-26T01:28:06.019Z,95.49
2017-10-26T01:29:16.222Z,95.24
2017-10-26T01:30:29.450Z,95.33
2017-10-26T01:31:34.816Z,95.23
2017-10-26T01:32:40.219Z,95.21
2017-10-26T01:33:45.575Z,95.28
2017-10-26T01:34:51.153Z,95.56
2017-10-26T01:35:58.232Z,95.63
2017-10-26T01:37:03.768Z,95.33
2017-10-26T01:38:09.222Z,95.22
2017-10-26T01:39:14.970Z,94.79
2017-10-26T01:40:20.482Z,94.63
2017-10-26T01:41:25.854Z,94.40
2017-10-26T01:42:31.223Z,94.47
2017-10-26T01:43:36.687Z,94.62
2017-10-26T01:44:42.054Z,94.65
2017-10-26T01:45:50.744Z,94.56
2017-10-26T01:46:56.132Z,94.55
2017-10-26T01:48:01.473Z,94.63
2017-10-26T01:49:06.635Z,95.06
2017-10-26T01:50:19.801Z,95.12
2017-10-26T01:51:26.705Z,95.22
2017-10-26T01:52:32.070Z,94.97
2017-10-26T01:53:37.566Z,95.15
2017-10-26T01:54:42.754Z,95.24
2017-10-26T01:55:48.112Z,95.01
2017-10-26T01:56:53.103Z,94.96
2017-10-26T01:57:58.640Z,94.86
2017-10-26T01:59:04.011Z,95.00
2017-10-26T02:00:10.366Z,94.87
2017-10-26T02:01:16.017Z,95.10
2017-10-26T02:02:22.178Z,95.21
2017-10-26T02:03:27.307Z,95.24
2017-10-26T02:04:32.475Z,95.46
2017-10-26T02:05:37.859Z,95.02
2017-10-26T02:06:43.049Z,94.95
2017-10-26T02:07:48.720Z,94.69
2017-10-26T02:08:54.961Z,94.91
2017-10-26T02:10:00.318Z,94.67
2017-10-26T02:11:17.890Z,94.67
2017-10-26T02:12:24.572Z,94.79
2017-10-26T02:13:30.337Z,94.77
2017-10-26T02:14:35.733Z,94.85
2017-10-26T02:15:41.453Z,94.69
2017-10-26T02:16:46.796Z,94.81
2017-10-26T02:17:52.161Z,94.66
2017-10-26T02:18:57.544Z,94.57
2017-10-26T02:20:03.323Z,94.70
2017-10-26T02:21:08.692Z,95.18
2017-10-26T02:22:14.075Z,94.82
2017-10-26T02:23:19.774Z,94.71
2017-10-26T02:24:25.208Z,95.33
2017-10-26T02:25:30.588Z,95.37
2017-10-26T02:26:36.722Z,95.70
2017-10-26T02:27:42.826Z,95.40
2017-10-26T02:29:00.851Z,95.48
2017-10-26T02:30:17.669Z,95.50
2017-10-26T02:31:34.665Z,95.37
2017-10-26T02:32:40.822Z,95.40
2017-10-26T02:33:46.928Z,95.18
2017-10-26T02:34:53.150Z,95.37
2017-10-26T02:35:58.846Z,95.82
2017-10-26T02:37:04.542Z,95.83
2017-10-26T02:38:10.282Z,95.66
2017-10-26T02:39:16.387Z,95.93
2017-10-26T02:40:22.518Z,95.75
2017-10-26T02:41:28.622Z,96.12
2017-10-26T02:42:34.715Z,96.10
2017-10-26T02:43:43.330Z,95.86
2017-10-26T02:44:49.727Z,95.85
2017-10-26T02:45:55.999Z,96.12
2017-10-26T02:47:02.062Z,95.87
2017-10-26T02:48:08.126Z,95.83
2017-10-26T02:49:14.404Z,95.65
2017-10-26T02:50:20.646Z,95.53
2017-10-26T02:51:26.748Z,95.73
2017-10-26T02:52:32.820Z,96.07
2017-10-26T02:53:38.239Z,95.63
2017-10-26T02:54:44.455Z,95.35
2017-10-26T02:55:50.551Z,95.41
2017-10-26T02:56:56.635Z,95.01
2017-10-26T02:58:02.757Z,94.99
2017-10-26T02:59:08.559Z,95.16
2017-10-26T03:00:13.970Z,94.87
2017-10-26T03:01:19.190Z,94.52
2017-10-26T03:02:24.340Z,95.19
2017-10-26T03:03:29.503Z,94.96
2017-10-26T03:04:34.877Z,95.00
2017-10-26T03:05:40.469Z,94.53
2017-10-26T03:06:48.728Z,94.35
2017-10-26T03:07:54.842Z,94.66
2017-10-26T03:09:01.963Z,95.10
2017-10-26T03:10:08.070Z,95.47
2017-10-26T03:11:14.159Z,95.49
2017-10-26T03:12:19.894Z,95.74
2017-10-26T03:13:25.967Z,95.80
2017-10-26T03:14:32.136Z,95.69
2017-10-26T03:15:40.340Z,95.30
2017-10-26T03:16:46.456Z,95.55
2017-10-26T03:17:52.638Z,95.93
2017-10-26T03:18:58.699Z,96.33
2017-10-26T03:20:04.780Z,96.29
2017-10-26T03:21:10.928Z,96.48
2017-10-26T03:22:17.039Z,96.43
2017-10-26T03:23:23.288Z,96.45
2017-10-26T03:24:29.860Z,96.05
2017-10-26T03:25:36.630Z,96.06
2017-10-26T03:26:43.536Z,96.12
2017-10-26T03:27:51.021Z,96.20
2017-10-26T03:28:58.604Z,96.20
2017-10-26T03:30:06.477Z,96.54
2017-10-26T03:31:13.689Z,96.53
2017-10-26T03:32:21.483Z,96.54
2017-10-26T03:33:28.524Z,96.62
2017-10-26T03:34:40.675Z,96.85
2017-10-26T03:35:47.999Z,96.48
2017-10-26T03:36:55.828Z,96.53
2017-10-26T03:38:02.882Z,96.45
2017-10-26T03:39:09.869Z,96.25
2017-10-26T03:40:17.386Z,96.16
2017-10-26T03:41:25.951Z,95.88
2017-10-26T03:42:36.653Z,95.84
2017-10-26T03:43:43.802Z,95.32
2017-10-26T03:44:50.907Z,94.89
2017-10-26T03:45:58.054Z,94.63
2017-10-26T03:47:05.501Z,94.59
2017-10-26T03:48:14.097Z,95.34
2017-10-26T03:49:21.169Z,95.46
2017-10-26T03:50:29.414Z,95.14
2017-10-26T03:51:37.617Z,95.55
2017-10-26T03:52:45.054Z,95.17
2017-10-26T03:53:52.506Z,95.01
2017-10-26T03:55:01.031Z,95.38
2017-10-26T03:56:08.457Z,95.51
2017-10-26T03:57:15.448Z,95.17
2017-10-26T03:58:22.916Z,95.39
2017-10-26T03:59:30.125Z,94.92
2017-10-26T04:00:38.292Z,94.70
2017-10-26T04:01:45.632Z,94.80
2017-10-26T04:02:56.667Z,95.26
2017-10-26T04:04:04.627Z,95.46
2017-10-26T04:05:11.808Z,95.43
2017-10-26T04:06:19.823Z,95.45
2017-10-26T04:07:29.007Z,95.57
2017-10-26T04:08:37.287Z,95.51
2017-10-26T04:09:49.065Z,95.62
2017-10-26T04:10:55.860Z,95.95
2017-10-26T04:12:01.791Z,96.22
2017-10-26T04:13:07.907Z,96.71
2017-10-26T04:14:14.056Z,96.16
2017-10-26T04:15:20.157Z,96.21
2017-10-26T04:16:26.635Z,96.10
2017-10-26T04:17:33.474Z,96.42
2017-10-26T04:18:42.323Z,96.39
2017-10-26T04:19:50.643Z,96.27
2017-10-26T04:20:57.139Z,95.96
2017-10-26T04:22:03.209Z,95.76
2017-10-26T04:23:09.139Z,95.84
2017-10-26T04:24:15.434Z,95.53
2017-10-26T04:25:21.597Z,95.50
2017-10-26T04:26:27.555Z,95.78
2017-10-26T04:27:33.637Z,95.55
2017-10-26T04:28:39.741Z,95.60
2017-10-26T04:29:45.840Z,95.57
2017-10-26T04:30:53.316Z,95.64
2017-10-26T04:31:58.329Z,95.72
2017-10-26T04:33:03.871Z,95.64
2017-10-26T04:34:09.376Z,95.87
2017-10-26T04:35:15.457Z,95.64
2017-10-26T04:36:21.548Z,95.74
2017-10-26T04:37:28.533Z,95.84
2017-10-26T04:38:34.423Z,95.81
2017-10-26T04:39:40.544Z,96.10
2017-10-26T04:40:46.643Z,96.10
2017-10-26T04:41:52.752Z,96.24
2017-10-26T04:42:58.834Z,96.18
2017-10-26T04:44:04.913Z,96.36
2017-10-26T04:45:11.204Z,96.34
2017-10-26T04:46:17.308Z,96.34
2017-10-26T04:47:23.425Z,96.55
2017-10-26T04:48:29.176Z,96.82
2017-10-26T04:49:35.265Z,96.48
2017-10-26T04:50:41.370Z,96.76
2017-10-26T04:51:47.448Z,97.07
2017-10-26T04:52:53.521Z,97.08
2017-10-26T04:54:00.351Z,97.12
2017-10-26T04:55:07.622Z,96.91
2017-10-26T04:56:15.216Z,96.60
2017-10-26T04:57:22.535Z,96.72
2017-10-26T04:58:28.636Z,96.71
2017-10-26T04:59:35.428Z,97.00
2017-10-26T05:00:42.344Z,96.75
2017-10-26T05:01:49.020Z,96.38
2017-10-26T05:02:55.348Z,96.36
2017-10-26T05:04:02.074Z,96.79
2017-10-26T05:05:08.302Z,96.86
2017-10-26T05:06:15.011Z,96.76
2017-10-26T05:07:21.476Z,97.02
2017-10-26T05:08:28.603Z,96.91
2017-10-26T05:09:34.838Z,96.48
2017-10-26T05:10:41.055Z,96.04
2017-10-26T05:11:47.177Z,96.36
2017-10-26T05:12:53.255Z,96.54
2017-10-26T05:13:59.425Z,96.39
2017-10-26T05:15:05.552Z,96.45
2017-10-26T05:16:11.764Z,96.02
2017-10-26T05:17:17.898Z,96.09
2017-10-26T05:18:24.020Z,96.36
2017-10-26T05:19:30.074Z,96.39
2017-10-26T05:20:38.240Z,96.49
2017-10-26T05:21:46.615Z,96.42
2017-10-26T05:22:52.748Z,96.02
2017-10-26T05:23:58.877Z,96.18
2017-10-26T05:25:05.036Z,96.29
2017-10-26T05:26:11.148Z,96.17
2017-10-26T05:27:17.276Z,96.21
2017-10-26T05:28:28.895Z,96.27
2017-10-26T05:29:34.795Z,96.12
2017-10-26T05:30:40.943Z,96.25
2017-10-26T05:31:47.066Z,96.23
2017-10-26T05:32:53.114Z,96.35
2017-10-26T05:33:58.865Z,96.28
2017-10-26T05:35:04.498Z,96.44
2017-10-26T05:36:10.257Z,96.40
2017-10-26T05:37:16.392Z,96.47
2017-10-26T05:38:21.809Z,96.41
2017-10-26T05:39:27.508Z,96.32
2017-10-26T05:40:33.289Z,96.61
2017-10-26T05:41:39.069Z,96.38
2017-10-26T05:42:44.769Z,96.24
2017-10-26T05:43:50.673Z,96.09
2017-10-26T05:44:56.733Z,95.94
2017-10-26T05:46:02.873Z,96.18
2017-10-26T05:47:09.019Z,96.40
2017-10-26T05:48:14.346Z,95.84
2017-10-26T05:49:20.469Z,95.72
2017-10-26T05:50:26.594Z,95.86
2017-10-26T05:51:32.114Z,96.20
2017-10-26T05:52:38.208Z,96.12
2017-10-26T05:53:44.312Z,96.20
2017-10-26T05:54:50.358Z,96.08
2017-10-26T05:55:56.478Z,95.98
2017-10-26T05:57:03.319Z,95.88
2017-10-26T05:58:09.429Z,95.94
2017-10-26T05:59:15.961Z,96.36
2017-10-26T06:00:21.976Z,96.68
2017-10-26T06:01:28.027Z,96.95
2017-10-26T06:02:34.132Z,96.69
2017-10-26T06:03:40.253Z,96.71
2017-10-26T06:04:46.366Z,96.70
2017-10-26T06:05:52.437Z,96.94
2017-10-26T06:06:58.547Z,96.60
2017-10-26T06:08:04.640Z,96.54
2017-10-26T06:09:10.543Z,96.64
2017-10-26T06:10:16.449Z,96.50
2017-10-26T06:11:22.842Z,96.44
2017-10-26T06:12:28.978Z,96.65
2017-10-26T06:13:35.085Z,96.69
2017-10-26T06:14:41.191Z,96.43
2017-10-26T06:15:47.294Z,96.13
2017-10-26T06:16:53.367Z,96.35
2017-10-26T06:17:59.511Z,96.37
2017-10-26T06:19:05.652Z,96.41
2017-10-26T06:20:11.731Z,96.29
2017-10-26T06:21:17.809Z,96.91
2017-10-26T06:22:24.122Z,97.12
2017-10-26T06:23:30.209Z,96.82
2017-10-26T06:24:36.364Z,97.01
2017-10-26T06:25:42.470Z,97.23
2017-10-26T06:26:48.602Z,96.75
2017-10-26T06:27:54.521Z,96.86
2017-10-26T06:29:00.652Z,96.42
2017-10-26T06:30:06.763Z,96.33
2017-10-26T06:31:12.848Z,96.52
2017-10-26T06:32:18.792Z,96.65
2017-10-26T06:33:24.876Z,96.48
2017-10-26T06:34:30.971Z,96.03
2017-10-26T06:35:37.063Z,96.02
2017-10-26T06:36:43.133Z,95.91
2017-10-26T06:37:49.268Z,96.01
2017-10-26T06:38:55.399Z,95.94
2017-10-26T06:40:01.670Z,96.05
2017-10-26T06:41:07.773Z,96.08
2017-10-26T06:42:13.911Z,95.55
2017-10-26T06:43:19.829Z,95.57
2017-10-26T06:44:26.342Z,95.55
2017-10-26T06:45:32.256Z,95.81
2017-10-26T06:46:38.357Z,95.81
2017-10-26T06:47:44.470Z,96.14
2017-10-26T06:48:50.840Z,96.46
2017-10-26T06:49:56.800Z,96.45
2017-10-26T06:51:02.686Z,96.58
2017-10-26T06:52:12.331Z,96.44
2017-10-26T06:53:19.479Z,96.33
2017-10-26T06:54:25.536Z,96.28
2017-10-26T06:55:31.635Z,96.41
2017-10-26T06:56:37.553Z,96.44
2017-10-26T06:57:43.474Z,96.19
2017-10-26T06:58:49.537Z,96.22
2017-10-26T06:59:55.403Z,96.34
2017-10-26T07:01:01.475Z,96.11
2017-10-26T07:02:07.339Z,95.48
2017-10-26T07:03:13.432Z,95.64
2017-10-26T07:04:19.493Z,95.55
2017-10-26T07:05:25.840Z,95.50
2017-10-26T07:06:31.919Z,95.81
2017-10-26T07:07:38.091Z,95.95
2017-10-26T07:08:44.040Z,95.85
2017-10-26T07:09:50.155Z,95.75
2017-10-26T07:10:56.238Z,95.49
2017-10-26T07:12:02.384Z,95.13
2017-10-26T07:13:08.498Z,94.89
2017-10-26T07:14:14.565Z,95.23
2017-10-26T07:15:20.676Z,95.14
2017-10-26T07:16:26.440Z,94.98
2017-10-26T07:17:35.459Z,95.28
2017-10-26T07:18:41.554Z,95.00
2017-10-26T07:19:47.615Z,94.68
2017-10-26T07:20:53.728Z,95.14
2017-10-26T07:21:59.822Z,95.04
2017-10-26T07:23:05.922Z,94.72
2017-10-26T07:24:12.006Z,94.67
2017-10-26T07:25:24.967Z,94.57
2017-10-26T07:26:31.129Z,94.43
2017-10-26T07:27:37.239Z,94.12
2017-10-26T07:28:44.052Z,94.15
2017-10-26T07:29:49.907Z,94.58
2017-10-26T07:30:59.881Z,94.52
2017-10-26T07:32:05.754Z,94.20
2017-10-26T07:33:11.958Z,94.20
2017-10-26T07:34:18.098Z,94.38
2017-10-26T07:35:24.236Z,94.51
2017-10-26T07:36:29.962Z,94.28
2017-10-26T07:37:36.078Z,94.16
2017-10-26T07:38:42.159Z,94.37
2017-10-26T07:39:47.887Z,94.23
2017-10-26T07:40:54.035Z,93.97
2017-10-26T07:42:00.107Z,93.84
2017-10-26T07:43:05.848Z,93.73
2017-10-26T07:44:11.962Z,93.62
2017-10-26T07:45:17.665Z,93.53
2017-10-26T07:46:23.384Z,93.71
2017-10-26T07:47:29.465Z,93.93
2017-10-26T07:48:35.158Z,94.20
2017-10-26T07:49:41.270Z,93.88
2017-10-26T07:50:47.361Z,94.00
2017-10-26T07:51:53.495Z,93.86
2017-10-26T07:52:59.574Z,93.85
2017-10-26T07:54:05.343Z,93.50
2017-10-26T07:55:11.432Z,93.30
2017-10-26T07:56:17.536Z,93.33
2017-10-26T07:57:23.672Z,93.11
2017-10-26T07:58:29.761Z,92.87
2017-10-26T07:59:35.911Z,93.29
2017-10-26T08:00:41.718Z,93.27
2017-10-26T08:01:47.223Z,93.18
2017-10-26T08:02:53.309Z,93.16
2017-10-26T08:03:59.141Z,93.05
2017-10-26T08:05:04.555Z,93.21
2017-10-26T08:06:10.648Z,93.17
2017-10-26T08:07:16.743Z,92.80
2017-10-26T08:08:22.501Z,93.02
2017-10-26T08:09:28.220Z,93.09
2017-10-26T08:10:34.311Z,92.63
2017-10-26T08:11:40.479Z,92.70
2017-10-26T08:12:46.593Z,92.83
2017-10-26T08:13:52.663Z,92.87
2017-10-26T08:14:58.797Z,92.76
2017-10-26T08:16:04.586Z,92.41
2017-10-26T08:17:10.676Z,92.35
2017-10-26T08:18:16.784Z,92.47
2017-10-26T08:19:22.885Z,92.33
2017-10-26T08:20:28.261Z,92.19
2017-10-26T08:21:33.627Z,92.01
2017-10-26T08:22:39.103Z,91.50
2017-10-26T08:23:45.171Z,91.15
2017-10-26T08:24:51.296Z,90.82
2017-10-26T08:25:56.684Z,90.84
2017-10-26T08:27:02.786Z,90.31
2017-10-26T08:28:08.142Z,90.32
2017-10-26T08:29:13.883Z,90.49
2017-10-26T08:30:22.598Z,90.38
2017-10-26T08:31:28.323Z,90.45
2017-10-26T08:32:34.386Z,90.37
2017-10-26T08:33:40.180Z,90.26
2017-10-26T08:34:46.292Z,90.05
2017-10-26T08:35:52.369Z,89.88
2017-10-26T08:36:58.116Z,89.75
2017-10-26T08:38:04.149Z,90.12
2017-10-26T08:39:10.297Z,89.70
2017-10-26T08:40:16.358Z,89.68
2017-10-26T08:41:22.419Z,89.89
2017-10-26T08:42:28.476Z,89.79
2017-10-26T08:43:34.557Z,89.59
2017-10-26T08:44:40.788Z,89.24
2017-10-26T08:45:46.879Z,88.46
2017-10-26T08:46:52.629Z,87.93
2017-10-26T08:47:58.728Z,87.94
2017-10-26T08:49:07.178Z,87.66
2017-10-26T08:50:12.626Z,87.32
2017-10-26T08:51:17.971Z,86.98
2017-10-26T08:52:23.326Z,86.87
2017-10-26T08:53:28.681Z,86.70
2017-10-26T08:54:34.094Z,86.69
2017-10-26T08:55:39.787Z,86.75
2017-10-26T08:56:45.531Z,86.67
2017-10-26T08:57:50.905Z,86.96
2017-10-26T08:58:56.313Z,86.48
2017-10-26T09:00:01.679Z,86.53
2017-10-26T09:01:07.205Z,86.25
2017-10-26T09:02:12.559Z,85.66
2017-10-26T09:03:20.788Z,85.34
2017-10-26T09:04:26.213Z,84.84
2017-10-26T09:05:31.633Z,84.93
2017-10-26T09:06:36.966Z,84.79
2017-10-26T09:07:42.383Z,84.53
2017-10-26T09:08:47.543Z,84.44
2017-10-26T09:09:53.261Z,84.40
2017-10-26T09:10:59.578Z,84.10
2017-10-26T09:12:05.146Z,83.29
2017-10-26T09:13:11.231Z,83.31
2017-10-26T09:14:16.801Z,83.26
2017-10-26T09:15:22.098Z,82.78
2017-10-26T09:16:27.122Z,82.58
2017-10-26T09:17:33.658Z,82.48
2017-10-26T09:18:39.316Z,82.28
2017-10-26T09:19:44.674Z,82.43
2017-10-26T09:20:50.120Z,82.42
2017-10-26T09:21:55.609Z,82.08
2017-10-26T09:23:01.361Z,82.13
2017-10-26T09:24:06.725Z,81.63
2017-10-26T09:25:12.098Z,81.54
2017-10-26T09:26:17.507Z,81.84
2017-10-26T09:27:23.256Z,81.49
2017-10-26T09:28:28.676Z,81.22
2017-10-26T09:29:33.852Z,81.08
2017-10-26T09:30:39.502Z,80.95
2017-10-26T09:31:45.233Z,80.68
2017-10-26T09:32:56.794Z,80.73
2017-10-26T09:34:02.204Z,80.85
2017-10-26T09:35:09.953Z,80.69
2017-10-26T09:36:15.322Z,80.49
2017-10-26T09:37:20.690Z,80.72
2017-10-26T09:38:26.041Z,80.79
2017-10-26T09:39:31.413Z,80.58
2017-10-26T09:40:38.353Z,81.05
2017-10-26T09:41:43.779Z,80.68
2017-10-26T09:42:49.456Z,80.56
2017-10-26T09:43:54.829Z,80.83
2017-10-26T09:45:00.184Z,80.84
2017-10-26T09:46:05.574Z,80.54
2017-10-26T09:47:10.980Z,80.04
2017-10-26T09:48:16.485Z,80.07
2017-10-26T09:49:22.005Z,79.98
2017-10-26T09:50:27.393Z,79.94
2017-10-26T09:51:32.738Z,79.28
2017-10-26T09:52:38.408Z,79.12
2017-10-26T09:53:43.744Z,79.62
2017-10-26T09:54:49.458Z,79.42
2017-10-26T09:55:54.825Z,79.78
2017-10-26T09:57:00.157Z,79.69
2017-10-26T09:58:05.539Z,79.97
2017-10-26T09:59:11.852Z,79.81
2017-10-26T10:00:17.204Z,80.11
2017-10-26T10:01:22.612Z,79.92
2017-10-26T10:02:27.948Z,80.16
2017-10-26T10:03:33.317Z,80.38
2017-10-26T10:04:38.750Z,80.51
2017-10-26T10:05:44.432Z,80.11
2017-10-26T10:06:49.952Z,80.07
2017-10-26T10:07:55.371Z,80.11
2017-10-26T10:09:00.551Z,80.36
2017-10-26T10:10:06.050Z,79.88
2017-10-26T10:11:12.426Z,79.73
2017-10-26T10:12:17.763Z,79.86
2017-10-26T10:13:23.106Z,80.40
2017-10-26T10:14:28.416Z,80.10
2017-10-26T10:15:33.761Z,79.86
2017-10-26T10:16:39.162Z,80.09
2017-10-26T10:17:44.503Z,80.11
2017-10-26T10:18:49.630Z,80.31
2017-10-26T10:20:08.963Z,80.34
2017-10-26T10:21:14.299Z,80.28
2017-10-26T10:22:20.059Z,80.32
2017-10-26T10:23:25.525Z,80.37
2017-10-26T10:24:31.053Z,80.40
2017-10-26T10:25:36.557Z,80.63
2017-10-26T10:26:41.705Z,80.43
2017-10-26T10:27:46.870Z,80.34
2017-10-26T10:28:52.231Z,80.37
2017-10-26T10:29:57.588Z,80.29
2017-10-26T10:31:02.923Z,79.89
2017-10-26T10:32:08.432Z,79.88
2017-10-26T10:33:13.632Z,80.05
2017-10-26T10:34:19.100Z,79.80
2017-10-26T10:35:24.444Z,79.79
2017-10-26T10:36:29.770Z,79.64
2017-10-26T10:37:35.241Z,79.78
2017-10-26T10:38:40.439Z,79.48
2017-10-26T10:39:45.767Z,79.33
2017-10-26T10:40:51.122Z,79.21
2017-10-26T10:41:56.801Z,78.90
2017-10-26T10:43:02.239Z,79.20
2017-10-26T10:44:07.404Z,79.58
2017-10-26T10:45:13.127Z,79.36
2017-10-26T10:46:18.467Z,79.27
2017-10-26T10:47:24.048Z,79.06
2017-10-26T10:48:29.554Z,78.94
2017-10-26T10:49:34.702Z,78.66
2017-10-26T10:50:40.395Z,78.83
2017-10-26T10:51:46.073Z,78.93
2017-10-26T10:52:51.428Z,78.46
2017-10-26T10:53:56.761Z,78.31
2017-10-26T10:55:02.968Z,78.45
2017-10-26T10:56:08.310Z,78.03
2017-10-26T10:57:13.776Z,77.21
2017-10-26T10:58:19.514Z,77.35
2017-10-26T10:59:30.124Z,76.89
2017-10-26T11:00:35.460Z,76.97
2017-10-26T11:01:42.728Z,76.65
2017-10-26T11:02:48.078Z,76.48
2017-10-26T11:03:53.447Z,75.84
2017-10-26T11:04:58.774Z,75.46
2017-10-26T11:06:04.113Z,75.93
2017-10-26T11:07:09.448Z,75.68
2017-10-26T11:08:15.187Z,74.76
2017-10-26T11:09:20.530Z,74.11
2017-10-26T11:10:26.126Z,74.26
2017-10-26T11:11:31.522Z,74.18
2017-10-26T11:12:37.222Z,74.02
2017-10-26T11:13:42.578Z,73.68
2017-10-26T11:14:47.919Z,73.48
2017-10-26T11:15:53.617Z,73.24
2017-10-26T11:16:59.020Z,72.98
2017-10-26T11:18:04.411Z,73.07
2017-10-26T11:19:09.771Z,72.77
2017-10-26T11:20:15.098Z,73.13
2017-10-26T11:21:20.804Z,72.29
2017-10-26T11:22:26.185Z,72.73
2017-10-26T11:23:31.559Z,72.50
2017-10-26T11:24:36.952Z,72.32
2017-10-26T11:25:42.335Z,72.28
2017-10-26T11:26:47.701Z,71.75
2017-10-26T11:27:53.049Z,71.77
2017-10-26T11:28:58.416Z,72.02
2017-10-26T11:30:03.742Z,71.78
2017-10-26T11:31:09.099Z,72.49
2017-10-26T11:32:14.563Z,72.56
2017-10-26T11:33:19.747Z,72.62
2017-10-26T11:34:25.071Z,73.00
2017-10-26T11:35:34.090Z,72.68
2017-10-26T11:36:43.790Z,73.07
2017-10-26T11:37:49.175Z,72.43
2017-10-26T11:38:54.784Z,72.73
2017-10-26T11:40:00.303Z,72.56
2017-10-26T11:41:05.657Z,72.64
2017-10-26T11:42:11.022Z,72.71
2017-10-26T11:43:16.504Z,73.31
2017-10-26T11:44:21.863Z,73.36
2017-10-26T11:45:27.533Z,73.56
2017-10-26T11:46:33.227Z,73.61
2017-10-26T11:47:38.371Z,73.53
2017-10-26T11:48:43.558Z,73.20
2017-10-26T11:49:49.098Z,73.42
2017-10-26T11:50:54.427Z,73.42
2017-10-26T11:51:59.569Z,73.31
2017-10-26T11:53:04.985Z,73.14
2017-10-26T11:54:10.325Z,73.12
2017-10-26T11:55:15.488Z,73.63
2017-10-26T11:56:24.550Z,73.61
2017-10-26T11:57:29.707Z,73.65
2017-10-26T11:58:35.055Z,73.54
2017-10-26T11:59:40.443Z,73.77
2017-10-26T12:00:46.310Z,73.82
2017-10-26T12:01:51.458Z,73.97
2017-10-26T12:02:56.450Z,74.06
2017-10-26T12:04:02.802Z,74.23
2017-10-26T12:05:08.474Z,74.05
2017-10-26T12:06:13.816Z,74.19
2017-10-26T12:07:19.143Z,74.27
2017-10-26T12:08:24.374Z,74.01
2017-10-26T12:09:30.074Z,73.99
2017-10-26T12:10:35.411Z,74.71
2017-10-26T12:11:42.076Z,74.54
2017-10-26T12:12:47.794Z,74.40
2017-10-26T12:13:52.999Z,74.36
2017-10-26T12:14:58.330Z,74.38
2017-10-26T12:16:03.710Z,74.34
2017-10-26T12:17:12.167Z,74.38
2017-10-26T12:18:17.529Z,74.44
2017-10-26T12:19:23.244Z,74.63
2017-10-26T12:20:28.618Z,74.81
2017-10-26T12:21:33.957Z,74.54
2017-10-26T12:22:41.694Z,74.12
2017-10-26T12:23:46.895Z,74.23
2017-10-26T12:24:52.247Z,74.40
2017-10-26T12:25:57.928Z,74.58
2017-10-26T12:27:03.617Z,74.27
2017-10-26T12:28:08.978Z,74.06
2017-10-26T12:29:14.491Z,74.24
2017-10-26T12:30:19.436Z,74.55
2017-10-26T12:31:24.966Z,74.86
2017-10-26T12:32:30.311Z,74.86
2017-10-26T12:33:35.274Z,75.16
2017-10-26T12:34:40.446Z,74.77
2017-10-26T12:35:45.786Z,74.64
2017-10-26T12:36:50.953Z,74.41
2017-10-26T12:37:59.439Z,74.57
2017-10-26T12:39:05.377Z,74.75
2017-10-26T12:40:10.721Z,74.68
2017-10-26T12:41:15.895Z,74.82
2017-10-26T12:42:21.267Z,74.45
2017-10-26T12:43:26.434Z,74.75
2017-10-26T12:44:31.768Z,74.86
2017-10-26T12:45:37.113Z,75.35
2017-10-26T12:46:43.222Z,74.85
2017-10-26T12:47:48.560Z,74.84
2017-10-26T12:48:53.952Z,74.88
2017-10-26T12:49:59.341Z,75.00
2017-10-26T12:51:04.669Z,75.47
2017-10-26T12:52:10.010Z,75.26
2017-10-26T12:53:15.370Z,75.13
2017-10-26T12:54:21.065Z,74.84
2017-10-26T12:55:26.410Z,74.90
2017-10-26T12:56:32.456Z,74.46
2017-10-26T12:57:38.160Z,74.45
2017-10-26T12:58:49.198Z,74.22
2017-10-26T12:59:57.987Z,74.22
2017-10-26T13:01:03.698Z,73.91
2017-10-26T13:02:09.065Z,74.08
2017-10-26T13:03:14.433Z,73.05
2017-10-26T13:04:19.786Z,72.67
2017-10-26T13:05:25.511Z,72.75
2017-10-26T13:06:30.890Z,73.09
2017-10-26T13:07:36.040Z,73.19
2017-10-26T13:08:41.783Z,72.71
2017-10-26T13:09:47.115Z,72.32
2017-10-26T13:10:52.464Z,72.62
2017-10-26T13:11:59.734Z,72.46
2017-10-26T13:13:05.453Z,73.00
2017-10-26T13:14:10.819Z,73.06
2017-10-26T13:15:16.134Z,72.97
2017-10-26T13:16:21.473Z,72.64
2017-10-26T13:17:26.798Z,72.33
2017-10-26T13:18:32.127Z,72.19
2017-10-26T13:19:44.328Z,72.47
2017-10-26T13:20:52.950Z,71.99
2017-10-26T13:21:58.281Z,72.29
2017-10-26T13:23:03.951Z,72.39
2017-10-26T13:24:09.298Z,72.49
2017-10-26T13:25:14.630Z,72.70
2017-10-26T13:26:19.971Z,73.00
2017-10-26T13:27:25.298Z,73.12
2017-10-26T13:28:31.343Z,73.17
2017-10-26T13:29:37.442Z,73.31
2017-10-26T13:30:43.184Z,73.25
2017-10-26T13:31:49.264Z,73.33
2017-10-26T13:32:55.305Z,73.44
2017-10-26T13:34:01.351Z,73.66
2017-10-26T13:35:07.474Z,73.69
2017-10-26T13:36:13.526Z,73.26
2017-10-26T13:37:19.189Z,73.18
2017-10-26T13:38:24.862Z,72.98
2017-10-26T13:39:30.922Z,73.42
2017-10-26T13:40:44.227Z,73.52
2017-10-26T13:41:50.306Z,73.75
2017-10-26T13:42:56.387Z,73.80
2017-10-26T13:44:02.128Z,74.35
2017-10-26T13:45:07.988Z,73.92
2017-10-26T13:46:14.018Z,74.14
2017-10-26T13:47:20.084Z,74.06
2017-10-26T13:48:25.768Z,74.34
2017-10-26T13:49:31.838Z,74.07
2017-10-26T13:50:37.901Z,73.95
2017-10-26T13:51:43.954Z,74.18
2017-10-26T13:52:50.078Z,74.01
2017-10-26T13:53:55.802Z,73.73
2017-10-26T13:55:01.865Z,73.53
2017-10-26T13:56:07.534Z,73.54
2017-10-26T13:57:14.519Z,73.32
2017-10-26T13:58:20.551Z,73.42
2017-10-26T13:59:26.600Z,73.83
2017-10-26T14:00:32.271Z,72.84
2017-10-26T14:01:42.773Z,72.34
2017-10-26T14:02:49.218Z,72.05
2017-10-26T14:03:54.534Z,72.01
2017-10-26T14:05:00.422Z,72.04
2017-10-26T14:06:05.783Z,71.89
2017-10-26T14:07:11.840Z,71.79
2017-10-26T14:08:17.888Z,71.66
2017-10-26T14:09:23.941Z,71.89
2017-10-26T14:10:29.665Z,71.66
2017-10-26T14:11:35.151Z,71.84
2017-10-26T14:12:41.228Z,71.76